createdAt,value
2018-11-07T00:01:49.687Z,33.20
2018-11-07T00:04:18.679Z,32.03
2018-11-07T00:06:46.645Z,30.40
2018-11-07T00:09:14.721Z,29.50
2018-11-07T00:11:42.680Z,30.50
2018-11-07T00:14:10.648Z,28.87
2018-11-07T00:16:38.535Z,31.47
2018-11-07T00:19:06.502Z,29.40
2018-11-07T00:21:34.469Z,29.23
2018-11-07T00:24:02.339Z,28.77
2018-11-07T00:26:30.530Z,27.87
2018-11-07T00:28:58.478Z,28.47
2018-11-07T00:31:26.444Z,27.43
2018-11-07T00:33:54.417Z,29.50
2018-11-07T00:36:22.387Z,27.63
2018-11-07T00:38:50.327Z,26.33
2018-11-07T00:41:18.251Z,27.20
2018-11-07T00:43:46.183Z,26.20
2018-11-07T00:46:14.704Z,26.03
2018-11-07T00:48:42.613Z,27.13
2018-11-07T00:51:10.490Z,26.33
2018-11-07T00:53:38.463Z,26.10
2018-11-07T00:56:07.255Z,25.70
2018-11-07T00:58:35.223Z,25.10
2018-11-07T01:01:03.178Z,24.07
2018-11-07T01:03:31.162Z,25.63
2018-11-07T01:05:59.047Z,22.90
2018-11-07T01:08:26.911Z,24.03
2018-11-07T01:10:54.865Z,23.60
2018-11-07T01:13:22.736Z,23.20
2018-11-07T01:15:50.648Z,24.07
2018-11-07T01:18:18.558Z,23.23
2018-11-07T01:20:46.540Z,21.63
2018-11-07T01:23:14.630Z,21.87
2018-11-07T01:25:42.546Z,20.83
2018-11-07T01:28:10.522Z,21.77
2018-11-07T01:30:38.327Z,21.27
2018-11-07T01:33:06.355Z,20.70
2018-11-07T01:35:34.406Z,20.30
2018-11-07T01:38:02.334Z,20.73
2018-11-07T01:40:30.299Z,20.50
2018-11-07T01:42:58.185Z,20.13
2018-11-07T01:45:26.111Z,19.83
2018-11-07T01:47:54.106Z,20.20
2018-11-07T01:50:22.071Z,19.43
2018-11-07T01:52:51.731Z,19.30
2018-11-07T01:55:19.700Z,19.03
2018-11-07T01:57:47.581Z,18.07
2018-11-07T02:00:15.578Z,17.83
2018-11-07T02:02:43.939Z,18.80
2018-11-07T02:05:12.056Z,17.43
2018-11-07T02:07:40.209Z,16.77
2018-11-07T02:10:08.871Z,18.67
2018-11-07T02:12:36.834Z,17.17
2018-11-07T02:15:05.246Z,17.13
2018-11-07T02:17:33.160Z,16.10
2018-11-07T02:20:01.097Z,15.93
2018-11-07T02:22:29.011Z,16.37
2018-11-07T02:24:57.005Z,16.57
2018-11-07T02:27:26.684Z,16.67
2018-11-07T02:29:54.583Z,17.30
2018-11-07T02:32:22.668Z,17.70
2018-11-07T02:34:50.813Z,17.20
2018-11-07T02:37:18.691Z,17.37
2018-11-07T02:39:46.651Z,16.90
2018-11-07T02:42:14.543Z,16.70
2018-11-07T02:44:42.499Z,15.87
2018-11-07T02:47:10.364Z,16.03
2018-11-07T02:49:38.230Z,16.37
2018-11-07T02:52:06.134Z,17.80
2018-11-07T02:54:34.059Z,18.03
2018-11-07T02:57:01.996Z,20.07
2018-11-07T02:59:29.916Z,18.00
2018-11-07T03:01:57.856Z,19.93
2018-11-07T03:04:25.753Z,18.47
2018-11-07T03:06:53.724Z,19.07
2018-11-07T03:09:21.679Z,18.00
2018-11-07T03:11:49.607Z,18.93
2018-11-07T03:14:17.509Z,19.20
2018-11-07T03:16:45.403Z,18.40
2018-11-07T03:19:13.333Z,20.23
2018-11-07T03:21:41.321Z,19.03
2018-11-07T03:24:09.201Z,20.30
2018-11-07T03:26:37.182Z,19.80
2018-11-07T03:29:05.095Z,18.50
2018-11-07T03:31:33.023Z,18.67
2018-11-07T03:34:00.921Z,19.43
2018-11-07T03:36:28.833Z,19.27
2018-11-07T03:38:56.718Z,19.37
2018-11-07T03:41:24.907Z,17.60
2018-11-07T03:43:52.928Z,17.50
2018-11-07T03:46:20.824Z,16.67
2018-11-07T03:48:48.687Z,18.43
2018-11-07T03:51:18.349Z,17.77
2018-11-07T03:53:46.283Z,16.80
2018-11-07T03:56:14.196Z,16.00
2018-11-07T03:58:49.874Z,17.20
2018-11-07T04:01:17.819Z,16.60
2018-11-07T04:03:45.787Z,17.23
2018-11-07T04:06:13.855Z,16.50
2018-11-07T04:08:41.742Z,15.23
2018-11-07T04:11:09.683Z,16.27
2018-11-07T04:13:37.563Z,15.40
2018-11-07T04:16:05.583Z,14.57
2018-11-07T04:18:33.526Z,13.00
2018-11-07T04:21:01.414Z,13.20
2018-11-07T04:23:29.347Z,12.40
2018-11-07T04:25:57.387Z,12.50
2018-11-07T04:28:25.387Z,13.80
2018-11-07T04:30:53.270Z,13.97
2018-11-07T04:33:21.243Z,16.13
2018-11-07T04:35:49.111Z,15.23
2018-11-07T04:38:17.076Z,15.87
2018-11-07T04:40:44.955Z,15.70
2018-11-07T04:43:12.815Z,17.13
2018-11-07T04:45:40.779Z,17.33
2018-11-07T04:48:08.659Z,16.63
2018-11-07T04:50:36.616Z,16.47
2018-11-07T04:53:04.487Z,16.47
2018-11-07T04:55:32.463Z,17.23
2018-11-07T04:58:00.341Z,16.90
2018-11-07T05:00:28.495Z,14.43
2018-11-07T05:02:56.393Z,14.53
2018-11-07T05:05:24.327Z,14.40
2018-11-07T05:07:52.232Z,14.00
2018-11-07T05:10:20.158Z,15.73
2018-11-07T05:12:48.043Z,15.17
2018-11-07T05:15:16.017Z,15.40
2018-11-07T05:17:44.039Z,18.00
2018-11-07T05:20:12.060Z,17.67
2018-11-07T05:22:40.254Z,18.53
2018-11-07T05:25:09.018Z,19.03
2018-11-07T05:27:36.980Z,21.23
2018-11-07T05:30:08.011Z,19.37
2018-11-07T05:32:36.007Z,20.07
2018-11-07T05:35:03.952Z,19.87
2018-11-07T05:37:31.835Z,19.23
2018-11-07T05:39:59.746Z,19.13
2018-11-07T05:42:27.671Z,16.33
2018-11-07T05:44:55.634Z,18.33
2018-11-07T05:47:23.499Z,17.77
2018-11-07T05:49:51.463Z,17.30
2018-11-07T05:52:19.327Z,17.13
2018-11-07T05:54:47.287Z,18.07
2018-11-07T05:57:15.186Z,16.33
2018-11-07T05:59:43.100Z,17.20
2018-11-07T06:02:11.083Z,17.53
2018-11-07T06:04:39.100Z,15.07
2018-11-07T06:07:07.119Z,15.17
2018-11-07T06:09:35.041Z,15.43
2018-11-07T06:12:02.991Z,15.27
2018-11-07T06:14:30.886Z,18.00
2018-11-07T06:17:02.610Z,16.63
2018-11-07T06:19:30.585Z,15.77
2018-11-07T06:21:58.459Z,16.23
2018-11-07T06:24:26.624Z,15.87
2018-11-07T06:26:54.472Z,16.87
2018-11-07T06:29:22.555Z,15.53
2018-11-07T06:31:52.128Z,16.73
2018-11-07T06:34:20.234Z,15.20
2018-11-07T06:36:48.235Z,18.17
2018-11-07T06:39:16.223Z,14.97
2018-11-07T06:41:44.114Z,15.50
2018-11-07T06:44:12.123Z,16.17
2018-11-07T06:46:40.095Z,16.17
2018-11-07T06:49:08.052Z,15.80
2018-11-07T06:51:37.767Z,15.13
2018-11-07T06:54:05.871Z,15.10
2018-11-07T06:56:33.833Z,16.97
2018-11-07T06:59:01.998Z,14.83
2018-11-07T07:01:30.013Z,14.30
2018-11-07T07:03:57.944Z,14.17
2018-11-07T07:06:25.900Z,13.73
2018-11-07T07:08:53.860Z,14.70
2018-11-07T07:11:21.941Z,13.87
2018-11-07T07:13:49.908Z,12.80
2018-11-07T07:16:17.991Z,12.60
2018-11-07T07:18:45.931Z,11.13
2018-11-07T07:21:14.011Z,11.00
2018-11-07T07:23:42.063Z,11.20
2018-11-07T07:26:10.030Z,11.13
2018-11-07T07:28:38.179Z,11.33
2018-11-07T07:31:06.203Z,11.23
2018-11-07T07:33:34.216Z,11.50
2018-11-07T07:36:02.114Z,9.90
2018-11-07T07:38:30.200Z,10.43
2018-11-07T07:40:58.155Z,9.83
2018-11-07T07:43:26.503Z,10.03
2018-11-07T07:45:54.392Z,10.00
2018-11-07T07:48:22.380Z,9.57
2018-11-07T07:50:50.288Z,9.50
2018-11-07T07:53:18.558Z,9.83
2018-11-07T07:55:46.392Z,9.90
2018-11-07T07:58:14.346Z,9.27
2018-11-07T08:00:42.241Z,9.20
2018-11-07T08:03:10.207Z,9.83
2018-11-07T08:05:38.172Z,10.27
2018-11-07T08:08:06.579Z,11.20
2018-11-07T08:10:34.508Z,9.33
2018-11-07T08:13:02.490Z,9.47
2018-11-07T08:15:30.420Z,10.07
2018-11-07T08:17:58.430Z,11.00
2018-11-07T08:20:26.427Z,11.23
2018-11-07T08:22:54.367Z,10.80
2018-11-07T08:25:22.363Z,9.97
2018-11-07T08:27:50.303Z,9.77
2018-11-07T08:30:19.592Z,9.83
2018-11-07T08:32:47.515Z,10.10
2018-11-07T08:35:16.394Z,9.80
2018-11-07T08:37:45.157Z,9.90
2018-11-07T08:40:14.879Z,9.73
2018-11-07T08:42:42.773Z,9.20
2018-11-07T08:45:11.535Z,9.27
2018-11-07T08:47:39.588Z,9.90
2018-11-07T08:50:08.830Z,10.87
2018-11-07T08:52:36.761Z,10.47
2018-11-07T08:55:05.391Z,9.83
2018-11-07T08:57:33.235Z,10.17
2018-11-07T09:00:01.240Z,9.47
2018-11-07T09:02:29.140Z,9.63
2018-11-07T09:04:57.087Z,10.60
2018-11-07T09:07:24.987Z,10.40
2018-11-07T09:09:59.463Z,10.50
2018-11-07T09:12:27.442Z,9.97
2018-11-07T09:14:55.439Z,9.93
2018-11-07T09:17:23.371Z,9.70
2018-11-07T09:19:51.319Z,9.67
2018-11-07T09:22:19.141Z,9.50
2018-11-07T09:24:47.028Z,9.63
2018-11-07T09:27:14.928Z,9.50
2018-11-07T09:29:42.851Z,10.17
2018-11-07T09:32:10.771Z,10.20
2018-11-07T09:34:38.664Z,9.73
2018-11-07T09:37:06.567Z,10.97
2018-11-07T09:39:34.527Z,9.80
2018-11-07T09:42:02.392Z,9.60
2018-11-07T09:44:30.287Z,9.97
2018-11-07T09:46:58.251Z,10.10
2018-11-07T09:49:26.176Z,9.57
2018-11-07T09:51:55.619Z,9.70
2018-11-07T09:54:23.604Z,10.20
2018-11-07T09:56:51.614Z,11.13
2018-11-07T09:59:19.547Z,10.00
2018-11-07T10:01:47.460Z,9.53
2018-11-07T10:04:15.367Z,10.67
2018-11-07T10:06:43.410Z,10.60
2018-11-07T10:09:12.003Z,10.30
2018-11-07T10:11:39.940Z,9.80
2018-11-07T10:14:08.159Z,10.30
2018-11-07T10:16:36.227Z,9.73
2018-11-07T10:19:04.272Z,9.57
2018-11-07T10:21:32.203Z,9.40
2018-11-07T10:24:00.105Z,9.67
2018-11-07T10:26:28.001Z,13.90
2018-11-07T10:28:56.228Z,11.53
2018-11-07T10:31:23.827Z,9.60
2018-11-07T10:33:51.751Z,9.83
2018-11-07T10:36:19.670Z,8.77
2018-11-07T10:38:47.685Z,9.53
2018-11-07T10:41:15.564Z,8.27
2018-11-07T10:43:43.474Z,8.57
2018-11-07T10:46:11.404Z,7.90
2018-11-07T10:48:39.249Z,7.97
2018-11-07T10:51:07.155Z,7.00
2018-11-07T10:53:35.048Z,7.80
2018-11-07T10:56:02.947Z,7.37
2018-11-07T10:58:30.891Z,7.30
2018-11-07T11:01:04.184Z,7.93
2018-11-07T11:03:32.295Z,7.57
2018-11-07T11:06:00.192Z,8.20
2018-11-07T11:08:28.136Z,8.50
2018-11-07T11:10:57.686Z,8.73
2018-11-07T11:13:25.767Z,7.67
2018-11-07T11:15:53.687Z,7.77
2018-11-07T11:18:21.595Z,8.13
2018-11-07T11:20:49.503Z,7.87
2018-11-07T11:23:17.404Z,7.33
2018-11-07T11:25:45.345Z,7.83
2018-11-07T11:28:13.263Z,7.87
2018-11-07T11:30:41.198Z,7.53
2018-11-07T11:33:09.092Z,7.30
2018-11-07T11:35:37.030Z,7.43
2018-11-07T11:38:05.190Z,8.13
2018-11-07T11:40:33.085Z,8.00
2018-11-07T11:43:00.972Z,8.07
2018-11-07T11:45:28.856Z,8.33
2018-11-07T11:47:56.743Z,8.13
2018-11-07T11:50:24.639Z,7.83
2018-11-07T11:52:52.540Z,6.50
2018-11-07T11:55:20.450Z,5.63
2018-11-07T11:57:48.363Z,6.70
2018-11-07T12:00:17.545Z,7.10
2018-11-07T12:02:45.713Z,7.30
2018-11-07T12:05:14.441Z,6.50
2018-11-07T12:07:42.503Z,7.50
2018-11-07T12:10:16.021Z,7.43
2018-11-07T12:12:45.964Z,6.50
2018-11-07T12:15:14.403Z,6.90
2018-11-07T12:17:42.463Z,7.43
2018-11-07T12:20:10.970Z,7.87
2018-11-07T12:25:24.773Z,6.33
2018-11-07T12:27:52.666Z,6.97
2018-11-07T12:30:21.760Z,7.07
2018-11-07T12:32:50.661Z,7.27
2018-11-07T12:35:19.059Z,6.83
2018-11-07T12:37:47.194Z,6.60
2018-11-07T12:40:15.443Z,6.43
2018-11-07T12:42:43.383Z,6.43
2018-11-07T12:45:12.183Z,6.73
2018-11-07T12:47:40.266Z,6.90
2018-11-07T12:50:09.031Z,6.77
2018-11-07T12:52:36.852Z,6.30
2018-11-07T12:55:05.647Z,7.00
2018-11-07T12:57:33.756Z,6.40
2018-11-07T13:00:01.620Z,6.60
2018-11-07T13:02:29.628Z,6.07
2018-11-07T13:04:57.547Z,6.67
2018-11-07T13:07:25.464Z,6.33
2018-11-07T13:09:53.371Z,5.90
2018-11-07T13:12:21.248Z,6.10
2018-11-07T13:14:50.560Z,4.93
2018-11-07T13:17:18.485Z,4.63
2018-11-07T13:19:46.387Z,5.47
2018-11-07T13:22:14.337Z,6.53
2018-11-07T13:24:42.172Z,5.93
2018-11-07T13:27:10.080Z,5.77
2018-11-07T13:29:37.967Z,5.50
2018-11-07T13:32:05.861Z,4.03
2018-11-07T13:34:33.836Z,3.60
2018-11-07T13:37:01.824Z,4.03
2018-11-07T13:39:29.606Z,3.47
2018-11-07T13:41:57.535Z,3.57
2018-11-07T13:44:25.433Z,3.43
2018-11-07T13:46:53.321Z,3.17
2018-11-07T13:49:21.244Z,3.20
2018-11-07T13:51:52.526Z,2.90
2018-11-07T13:54:20.419Z,3.70
2018-11-07T13:56:48.289Z,3.23
2018-11-07T13:59:16.226Z,3.17
2018-11-07T14:01:44.065Z,2.70
2018-11-07T14:04:11.999Z,2.80
2018-11-07T14:06:39.913Z,3.10
2018-11-07T14:09:08.375Z,3.50
2018-11-07T14:11:36.289Z,2.90
2018-11-07T14:14:04.359Z,3.00
2018-11-07T14:16:32.309Z,2.60
2018-11-07T14:19:00.141Z,2.50
2018-11-07T14:21:28.025Z,3.10
2018-11-07T14:23:55.888Z,3.03
2018-11-07T14:26:23.814Z,2.30
2018-11-07T14:28:51.704Z,2.60
2018-11-07T14:31:19.630Z,2.57
2018-11-07T14:33:47.529Z,2.77
2018-11-07T14:36:15.413Z,2.20
2018-11-07T14:38:44.591Z,2.63
2018-11-07T14:41:13.736Z,2.70
2018-11-07T14:43:41.646Z,2.87
2018-11-07T14:46:09.626Z,2.80
2018-11-07T14:48:37.452Z,2.67
2018-11-07T14:51:08.493Z,3.00
2018-11-07T14:53:36.474Z,2.60
2018-11-07T14:56:04.411Z,2.93
2018-11-07T14:58:32.304Z,2.60
2018-11-07T15:01:00.197Z,3.23
2018-11-07T15:03:28.115Z,3.20
2018-11-07T15:05:56.076Z,3.07
2018-11-07T15:08:23.978Z,2.87
2018-11-07T15:10:51.760Z,2.83
2018-11-07T15:13:19.757Z,2.83
2018-11-07T15:15:47.631Z,2.67
2018-11-07T15:18:15.558Z,3.23
2018-11-07T15:20:43.489Z,2.83
2018-11-07T15:23:11.375Z,4.00
2018-11-07T15:25:39.271Z,4.30
2018-11-07T15:28:07.153Z,3.83
2018-11-07T15:30:35.055Z,3.67
2018-11-07T15:33:02.965Z,3.40
2018-11-07T15:35:30.858Z,4.03
2018-11-07T15:37:58.737Z,3.50
2018-11-07T15:40:26.653Z,3.50
2018-11-07T15:42:54.547Z,3.17
2018-11-07T15:45:22.431Z,3.63
2018-11-07T15:47:50.315Z,3.57
2018-11-07T15:50:23.819Z,26.77
2018-11-07T15:52:51.740Z,11.33
2018-11-07T15:55:19.639Z,3.57
2018-11-07T15:57:47.559Z,3.90
2018-11-07T16:00:16.591Z,3.93
2018-11-07T16:02:44.492Z,3.90
2018-11-07T16:05:13.449Z,3.47
2018-11-07T16:07:41.367Z,3.43
2018-11-07T16:10:10.332Z,4.17
2018-11-07T16:12:38.643Z,3.93
2018-11-07T16:15:07.076Z,3.20
2018-11-07T16:17:34.965Z,3.77
2018-11-07T16:20:02.904Z,3.57
2018-11-07T16:22:30.918Z,3.73
2018-11-07T16:24:58.797Z,3.40
2018-11-07T16:27:26.681Z,3.80
2018-11-07T16:29:54.591Z,3.90
2018-11-07T16:32:22.501Z,4.07
2018-11-07T16:34:50.392Z,3.60
2018-11-07T16:37:18.323Z,4.13
2018-11-07T16:39:46.199Z,4.20
2018-11-07T16:42:14.100Z,4.27
2018-11-07T16:44:42.003Z,4.20
2018-11-07T16:47:09.976Z,4.30
2018-11-07T16:49:37.835Z,3.73
2018-11-07T16:52:06.103Z,3.90
2018-11-07T16:54:34.013Z,4.03
2018-11-07T16:57:01.900Z,4.03
2018-11-07T16:59:29.825Z,4.13
2018-11-07T17:01:57.723Z,4.57
2018-11-07T17:04:25.686Z,4.17
2018-11-07T17:06:53.512Z,3.90
2018-11-07T17:09:21.445Z,4.77
2018-11-07T17:11:49.335Z,4.37
2018-11-07T17:14:17.251Z,3.57
2018-11-07T17:16:45.190Z,3.70
2018-11-07T17:19:13.312Z,3.30
2018-11-07T17:21:47.788Z,4.03
2018-11-07T17:24:15.754Z,3.37
2018-11-07T17:26:43.589Z,3.67
2018-11-07T17:29:11.451Z,3.87
2018-11-07T17:31:39.473Z,4.23
2018-11-07T17:34:07.285Z,3.60
2018-11-07T17:36:35.187Z,3.83
2018-11-07T17:39:03.268Z,3.87
2018-11-07T17:41:31.143Z,3.73
2018-11-07T17:43:59.070Z,4.00
2018-11-07T17:46:26.998Z,4.40
2018-11-07T17:48:54.892Z,4.60
2018-11-07T17:51:22.832Z,4.33
2018-11-07T17:53:52.092Z,4.10
2018-11-07T17:56:20.091Z,4.20
2018-11-07T17:58:47.943Z,4.77
2018-11-07T18:01:15.836Z,5.30
2018-11-07T18:03:43.825Z,5.87
2018-11-07T18:06:11.679Z,5.83
2018-11-07T18:08:39.718Z,4.70
2018-11-07T18:11:07.888Z,4.90
2018-11-07T18:13:35.794Z,6.07
2018-11-07T18:16:03.653Z,5.20
2018-11-07T18:18:31.748Z,5.10
2018-11-07T18:20:59.787Z,4.97
2018-11-07T18:26:18.812Z,5.30
2018-11-07T18:28:46.737Z,5.40
2018-11-07T18:31:14.680Z,5.67
2018-11-07T18:33:42.571Z,5.77
2018-11-07T18:36:10.479Z,10.53
2018-11-07T18:38:38.387Z,5.97
2018-11-07T18:41:06.327Z,7.00
2018-11-07T18:43:34.199Z,5.47
2018-11-07T18:46:02.096Z,5.50
2018-11-07T18:51:16.436Z,5.23
2018-11-07T18:53:44.356Z,5.53
2018-11-07T18:56:12.300Z,5.23
2018-11-07T18:58:40.400Z,4.83
2018-11-07T19:01:08.256Z,5.03
2018-11-07T19:03:36.208Z,4.97
2018-11-07T19:06:04.242Z,4.23
2018-11-07T19:08:32.235Z,4.10
2018-11-07T19:11:00.178Z,4.00
2018-11-07T19:13:28.549Z,4.23
2018-11-07T19:15:56.449Z,3.67
2018-11-07T19:18:24.340Z,3.80
2018-11-07T19:20:52.261Z,3.37
2018-11-07T19:23:20.160Z,2.90
2018-11-07T19:25:48.056Z,3.10
2018-11-07T19:28:15.961Z,3.27
2018-11-07T19:30:43.891Z,2.70
2018-11-07T19:33:11.894Z,2.50
2018-11-07T19:35:39.720Z,1.93
2018-11-07T19:38:07.638Z,1.80
2018-11-07T19:40:35.549Z,2.10
2018-11-07T19:43:03.449Z,2.07
2018-11-07T19:45:31.348Z,2.03
2018-11-07T19:47:59.254Z,2.10
2018-11-07T19:50:27.132Z,1.60
2018-11-07T19:52:55.133Z,1.70
2018-11-07T19:55:23.881Z,2.87
2018-11-07T19:57:55.730Z,1.80
2018-11-07T20:00:23.721Z,2.10
2018-11-07T20:02:51.649Z,1.77
2018-11-07T20:05:19.548Z,1.67
2018-11-07T20:07:47.523Z,2.00
2018-11-07T20:10:17.084Z,1.83
2018-11-07T20:12:44.971Z,1.73
2018-11-07T20:15:14.047Z,2.00
2018-11-07T20:17:41.972Z,2.07
2018-11-07T20:20:10.314Z,2.17
2018-11-07T20:22:38.278Z,2.80
2018-11-07T20:25:06.619Z,2.20
2018-11-07T20:27:34.516Z,2.33
2018-11-07T20:30:02.455Z,2.40
2018-11-07T20:32:30.443Z,2.40
2018-11-07T20:35:10.893Z,2.63
2018-11-07T20:37:38.816Z,2.60
2018-11-07T20:40:07.898Z,2.50
2018-11-07T20:42:35.831Z,5.83
2018-11-07T20:45:04.052Z,2.37
2018-11-07T20:47:33.511Z,2.77
2018-11-07T20:50:01.529Z,2.73
2018-11-07T20:52:29.416Z,3.10
2018-11-07T20:54:57.386Z,3.07
2018-11-07T20:57:25.259Z,3.50
2018-11-07T20:59:54.426Z,3.10
2018-11-07T21:02:22.402Z,3.50
2018-11-07T21:04:50.300Z,4.03
2018-11-07T21:07:18.262Z,4.33
2018-11-07T21:09:46.172Z,4.47
2018-11-07T21:12:14.084Z,4.50
2018-11-07T21:14:42.026Z,4.60
2018-11-07T21:17:09.920Z,4.63
2018-11-07T21:19:37.821Z,4.77
2018-11-07T21:22:08.032Z,4.93
2018-11-07T21:24:35.935Z,5.13
2018-11-07T21:27:03.921Z,4.40
2018-11-07T21:29:31.780Z,4.93
2018-11-07T21:31:59.674Z,5.90
2018-11-07T21:34:27.559Z,5.20
2018-11-07T21:36:55.431Z,5.03
2018-11-07T21:39:23.362Z,5.30
2018-11-07T21:41:51.279Z,5.00
2018-11-07T21:44:19.204Z,4.73
2018-11-07T21:46:47.131Z,5.00
2018-11-07T21:49:15.045Z,4.33
2018-11-07T21:51:42.959Z,3.87
2018-11-07T21:54:10.862Z,4.37
2018-11-07T21:56:38.776Z,4.67
2018-11-07T21:59:06.739Z,4.70
2018-11-07T22:01:34.642Z,4.53
2018-11-07T22:04:02.514Z,3.73
2018-11-07T22:06:30.407Z,4.10
2018-11-07T22:08:58.286Z,3.80
2018-11-07T22:11:26.215Z,3.47
2018-11-07T22:13:54.108Z,3.97
2018-11-07T22:16:22.222Z,3.77
2018-11-07T22:18:50.127Z,3.53
2018-11-07T22:21:18.015Z,3.43
2018-11-07T22:23:45.951Z,3.63
2018-11-07T22:26:13.894Z,3.57
2018-11-07T22:28:41.804Z,4.63
2018-11-07T22:31:09.697Z,4.03
2018-11-07T22:33:38.199Z,3.43
2018-11-07T22:36:06.097Z,3.93
2018-11-07T22:38:34.097Z,3.90
2018-11-07T22:41:01.983Z,3.97
2018-11-07T22:43:29.884Z,4.20
2018-11-07T22:45:57.871Z,4.30
2018-11-07T22:48:25.773Z,4.43
2018-11-07T22:50:53.678Z,3.93
2018-11-07T22:53:21.637Z,4.40
2018-11-07T22:55:49.532Z,4.53
2018-11-07T22:58:17.438Z,4.70
2018-11-07T23:00:50.875Z,4.60
2018-11-07T23:03:18.791Z,3.97
2018-11-07T23:05:46.698Z,3.80
2018-11-07T23:08:14.581Z,4.33
2018-11-07T23:10:42.514Z,3.93
2018-11-07T23:13:10.448Z,3.80
2018-11-07T23:15:43.763Z,4.20
2018-11-07T23:18:11.659Z,3.93
2018-11-07T23:20:39.538Z,4.70
2018-11-07T23:23:07.447Z,4.13
2018-11-07T23:25:35.348Z,4.30
2018-11-07T23:28:03.235Z,4.70
2018-11-07T23:30:31.137Z,4.63
2018-11-07T23:32:59.088Z,5.27
2018-11-07T23:35:26.996Z,5.17
2018-11-07T23:37:54.888Z,4.57
2018-11-07T23:40:22.802Z,5.17
2018-11-07T23:42:50.697Z,4.87
2018-11-07T23:45:18.722Z,4.70
2018-11-07T23:47:46.690Z,4.53
2018-11-07T23:50:14.592Z,4.83
2018-11-07T23:52:46.687Z,5.33
2018-11-07T23:55:14.841Z,5.80
2018-11-07T23:57:42.758Z,5.13
